sensor_id;sensor_type;location;lat;lon;timestamp;temperature;humidity
47338;DHT22;33069;51.970;5.892;2022-12-18T00:01:43;-3272.60;86.90
47338;DHT22;33069;51.970;5.892;2022-12-18T00:04:23;-3272.90;87.10
47338;DHT22;33069;51.970;5.892;2022-12-18T00:06:49;-3272.90;87.20
47338;DHT22;33069;51.970;5.892;2022-12-18T00:09:15;-3273.00;87.20
47338;DHT22;33069;51.970;5.892;2022-12-18T00:12:18;-3272.90;87.10
47338;DHT22;33069;51.970;5.892;2022-12-18T00:14:44;-3272.80;86.90
47338;DHT22;33069;51.970;5.892;2022-12-18T00:17:09;-3272.70;86.80
47338;DHT22;33069;51.970;5.892;2022-12-18T00:19:35;-3272.70;86.70
47338;DHT22;33069;51.970;5.892;2022-12-18T00:22:01;-3272.60;86.70
47338;DHT22;33069;51.970;5.892;2022-12-18T00:24:26;-3272.60;86.70
47338;DHT22;33069;51.970;5.892;2022-12-18T00:26:52;-3272.80;86.80
47338;DHT22;33069;51.970;5.892;2022-12-18T00:29:17;-3272.80;86.90
47338;DHT22;33069;51.970;5.892;2022-12-18T00:31:43;-3272.70;86.70
47338;DHT22;33069;51.970;5.892;2022-12-18T00:34:12;-3272.60;86.60
47338;DHT22;33069;51.970;5.892;2022-12-18T00:36:39;-3272.80;86.60
47338;DHT22;33069;51.970;5.892;2022-12-18T00:39:05;-3272.70;86.40
47338;DHT22;33069;51.970;5.892;2022-12-18T00:41:31;-3272.70;86.30
47338;DHT22;33069;51.970;5.892;2022-12-18T00:44:17;-3272.60;86.20
47338;DHT22;33069;51.970;5.892;2022-12-18T00:46:44;-3272.60;86.20
47338;DHT22;33069;51.970;5.892;2022-12-18T00:49:12;-3272.60;86.10
47338;DHT22;33069;51.970;5.892;2022-12-18T00:51:37;-3272.40;86.00
47338;DHT22;33069;51.970;5.892;2022-12-18T00:54:03;-3272.60;86.00
47338;DHT22;33069;51.970;5.892;2022-12-18T00:56:29;-3272.50;86.00
47338;DHT22;33069;51.970;5.892;2022-12-18T00:58:55;-3272.50;86.00
47338;DHT22;33069;51.970;5.892;2022-12-18T01:01:21;-3272.60;86.00
47338;DHT22;33069;51.970;5.892;2022-12-18T01:03:46;-3272.70;86.00
47338;DHT22;33069;51.970;5.892;2022-12-18T01:06:13;-3272.60;85.80
47338;DHT22;33069;51.970;5.892;2022-12-18T01:08:39;-3272.70;85.80
47338;DHT22;33069;51.970;5.892;2022-12-18T01:14:27;-3272.60;85.40
47338;DHT22;33069;51.970;5.892;2022-12-18T01:16:53;-3272.60;85.30
47338;DHT22;33069;51.970;5.892;2022-12-18T01:19:19;-3272.50;85.20
47338;DHT22;33069;51.970;5.892;2022-12-18T01:21:44;-3272.50;85.10
47338;DHT22;33069;51.970;5.892;2022-12-18T01:24:11;-3272.50;85.10
47338;DHT22;33069;51.970;5.892;2022-12-18T01:26:37;-3272.40;85.10
47338;DHT22;33069;51.970;5.892;2022-12-18T01:29:03;-3272.40;85.10
47338;DHT22;33069;51.970;5.892;2022-12-18T01:31:31;-3272.60;85.30
47338;DHT22;33069;51.970;5.892;2022-12-18T01:33:58;-3272.50;85.10
47338;DHT22;33069;51.970;5.892;2022-12-18T01:36:31;-3272.60;85.00
47338;DHT22;33069;51.970;5.892;2022-12-18T01:38:59;-3272.60;84.90
47338;DHT22;33069;51.970;5.892;2022-12-18T01:41:28;-3272.50;84.60
47338;DHT22;33069;51.970;5.892;2022-12-18T01:50:34;-3272.40;84.50
47338;DHT22;33069;51.970;5.892;2022-12-18T01:53:13;-3272.50;84.50
47338;DHT22;33069;51.970;5.892;2022-12-18T01:55:49;-3272.50;84.50
47338;DHT22;33069;51.970;5.892;2022-12-18T01:58:16;-3272.40;84.40
47338;DHT22;33069;51.970;5.892;2022-12-18T02:00:42;-3272.50;84.50
47338;DHT22;33069;51.970;5.892;2022-12-18T02:03:08;-3272.50;84.40
47338;DHT22;33069;51.970;5.892;2022-12-18T02:14:23;-3272.20;84.40
47338;DHT22;33069;51.970;5.892;2022-12-18T02:27:51;-3272.10;84.30
47338;DHT22;33069;51.970;5.892;2022-12-18T02:30:18;-3272.10;84.50
47338;DHT22;33069;51.970;5.892;2022-12-18T02:32:50;-3272.10;84.50
47338;DHT22;33069;51.970;5.892;2022-12-18T02:35:22;-3272.20;84.70
47338;DHT22;33069;51.970;5.892;2022-12-18T02:37:49;-3272.10;84.50
47338;DHT22;33069;51.970;5.892;2022-12-18T02:40:17;-3272.10;84.50
47338;DHT22;33069;51.970;5.892;2022-12-18T02:42:43;-3272.10;84.60
47338;DHT22;33069;51.970;5.892;2022-12-18T02:45:09;-3272.20;84.70
47338;DHT22;33069;51.970;5.892;2022-12-18T02:47:38;-3272.10;84.50
47338;DHT22;33069;51.970;5.892;2022-12-18T02:50:11;-3272.10;84.40
47338;DHT22;33069;51.970;5.892;2022-12-18T02:59:04;-3272.50;84.30
47338;DHT22;33069;51.970;5.892;2022-12-18T03:01:55;-3272.30;83.90
47338;DHT22;33069;51.970;5.892;2022-12-18T03:04:30;-3272.30;83.80
47338;DHT22;33069;51.970;5.892;2022-12-18T03:07:01;-3272.60;83.90
47338;DHT22;33069;51.970;5.892;2022-12-18T03:09:41;-3272.60;83.70
47338;DHT22;33069;51.970;5.892;2022-12-18T03:12:17;-3272.50;83.30
47338;DHT22;33069;51.970;5.892;2022-12-18T03:14:54;-3272.60;83.00
47338;DHT22;33069;51.970;5.892;2022-12-18T03:17:25;-3272.40;82.70
47338;DHT22;33069;51.970;5.892;2022-12-18T03:19:53;-3272.20;82.70
47338;DHT22;33069;51.970;5.892;2022-12-18T03:22:22;-3272.10;82.90
47338;DHT22;33069;51.970;5.892;2022-12-18T03:24:49;-3272.20;83.20
47338;DHT22;33069;51.970;5.892;2022-12-18T03:27:18;-3272.30;83.40
47338;DHT22;33069;51.970;5.892;2022-12-18T03:29:47;-3272.20;83.40
47338;DHT22;33069;51.970;5.892;2022-12-18T03:32:26;-3272.20;83.40
47338;DHT22;33069;51.970;5.892;2022-12-18T03:34:57;-3272.10;83.40
47338;DHT22;33069;51.970;5.892;2022-12-18T03:37:24;-3272.10;83.40
47338;DHT22;33069;51.970;5.892;2022-12-18T03:39:49;-3272.20;83.50
47338;DHT22;33069;51.970;5.892;2022-12-18T03:42:22;-3272.20;83.50
47338;DHT22;33069;51.970;5.892;2022-12-18T03:45:27;-3272.10;83.40
47338;DHT22;33069;51.970;5.892;2022-12-18T03:48:18;-3272.30;83.60
47338;DHT22;33069;51.970;5.892;2022-12-18T03:50:48;-3272.40;83.60
47338;DHT22;33069;51.970;5.892;2022-12-18T03:55:50;-3272.30;82.90
47338;DHT22;33069;51.970;5.892;2022-12-18T03:58:20;-3272.20;82.80
47338;DHT22;33069;51.970;5.892;2022-12-18T04:00:49;-3272.00;82.70
47338;DHT22;33069;51.970;5.892;2022-12-18T04:03:18;-3272.10;82.90
47338;DHT22;33069;51.970;5.892;2022-12-18T04:05:45;-3272.10;83.10
47338;DHT22;33069;51.970;5.892;2022-12-18T04:08:12;-3272.10;83.10
47338;DHT22;33069;51.970;5.892;2022-12-18T04:10:38;-3272.10;83.10
47338;DHT22;33069;51.970;5.892;2022-12-18T04:13:04;-3272.20;83.30
47338;DHT22;33069;51.970;5.892;2022-12-18T04:15:33;-3272.10;83.10
47338;DHT22;33069;51.970;5.892;2022-12-18T04:17:59;-3272.30;83.30
47338;DHT22;33069;51.970;5.892;2022-12-18T04:20:25;-3272.20;83.20
47338;DHT22;33069;51.970;5.892;2022-12-18T04:22:51;-3272.30;83.00
47338;DHT22;33069;51.970;5.892;2022-12-18T04:25:16;-3272.20;82.90
47338;DHT22;33069;51.970;5.892;2022-12-18T04:27:42;-3272.20;82.80
47338;DHT22;33069;51.970;5.892;2022-12-18T04:30:08;-3272.20;82.90
47338;DHT22;33069;51.970;5.892;2022-12-18T04:32:34;-3272.20;82.90
47338;DHT22;33069;51.970;5.892;2022-12-18T04:35:01;-3272.10;82.90
47338;DHT22;33069;51.970;5.892;2022-12-18T04:37:26;-3272.30;83.00
47338;DHT22;33069;51.970;5.892;2022-12-18T04:39:52;-3272.30;83.00
47338;DHT22;33069;51.970;5.892;2022-12-18T04:42:18;-3272.60;83.10
47338;DHT22;33069;51.970;5.892;2022-12-18T04:44:43;-3272.40;82.70
47338;DHT22;33069;51.970;5.892;2022-12-18T04:47:10;-3272.40;82.40
47338;DHT22;33069;51.970;5.892;2022-12-18T04:53:04;-3272.30;82.20
47338;DHT22;33069;51.970;5.892;2022-12-18T04:55:29;-3272.10;82.30
47338;DHT22;33069;51.970;5.892;2022-12-18T04:57:55;-3272.30;82.50
47338;DHT22;33069;51.970;5.892;2022-12-18T05:00:22;-3272.10;82.40
47338;DHT22;33069;51.970;5.892;2022-12-18T05:02:47;-3272.20;82.60
47338;DHT22;33069;51.970;5.892;2022-12-18T05:05:13;-3272.10;82.60
47338;DHT22;33069;51.970;5.892;2022-12-18T05:07:39;-3272.10;82.60
47338;DHT22;33069;51.970;5.892;2022-12-18T05:10:05;-3272.10;82.70
47338;DHT22;33069;51.970;5.892;2022-12-18T05:12:31;-3272.00;82.80
47338;DHT22;33069;51.970;5.892;2022-12-18T05:14:56;-3271.90;82.70
47338;DHT22;33069;51.970;5.892;2022-12-18T05:17:22;-3272.10;82.90
47338;DHT22;33069;51.970;5.892;2022-12-18T05:19:48;-3272.10;82.80
47338;DHT22;33069;51.970;5.892;2022-12-18T05:22:14;-3272.00;82.80
47338;DHT22;33069;51.970;5.892;2022-12-18T05:24:39;-3271.90;82.70
47338;DHT22;33069;51.970;5.892;2022-12-18T05:27:33;-3272.20;83.10
47338;DHT22;33069;51.970;5.892;2022-12-18T05:29:59;-3272.30;83.00
47338;DHT22;33069;51.970;5.892;2022-12-18T05:32:24;-3272.30;82.80
47338;DHT22;33069;51.970;5.892;2022-12-18T05:34:50;-3272.20;82.60
47338;DHT22;33069;51.970;5.892;2022-12-18T05:37:16;-3272.30;82.50
47338;DHT22;33069;51.970;5.892;2022-12-18T05:39:43;-3272.20;82.40
47338;DHT22;33069;51.970;5.892;2022-12-18T05:42:08;-3272.00;82.10
47338;DHT22;33069;51.970;5.892;2022-12-18T05:44:34;-3272.10;82.40
47338;DHT22;33069;51.970;5.892;2022-12-18T05:47:00;-3272.20;82.40
47338;DHT22;33069;51.970;5.892;2022-12-18T05:49:25;-3272.20;82.50
47338;DHT22;33069;51.970;5.892;2022-12-18T05:51:51;-3272.40;82.50
47338;DHT22;33069;51.970;5.892;2022-12-18T05:54:17;-3272.60;82.30
47338;DHT22;33069;51.970;5.892;2022-12-18T05:56:42;-3272.50;81.80
47338;DHT22;33069;51.970;5.892;2022-12-18T05:59:08;-3272.40;81.60
47338;DHT22;33069;51.970;5.892;2022-12-18T06:01:35;-3272.50;81.80
47338;DHT22;33069;51.970;5.892;2022-12-18T06:04:00;-3272.60;81.60
47338;DHT22;33069;51.970;5.892;2022-12-18T06:06:27;-3272.60;81.40
47338;DHT22;33069;51.970;5.892;2022-12-18T06:08:54;-3272.70;81.40
47338;DHT22;33069;51.970;5.892;2022-12-18T06:11:22;-3272.60;81.00
47338;DHT22;33069;51.970;5.892;2022-12-18T06:13:53;-3272.80;81.00
47338;DHT22;33069;51.970;5.892;2022-12-18T06:16:18;-3272.70;80.60
47338;DHT22;33069;51.970;5.892;2022-12-18T06:18:44;-3272.50;80.20
47338;DHT22;33069;51.970;5.892;2022-12-18T06:21:10;-3272.30;80.60
47338;DHT22;33069;51.970;5.892;2022-12-18T06:23:36;-3272.50;81.10
47338;DHT22;33069;51.970;5.892;2022-12-18T06:26:07;-3272.50;81.20
47338;DHT22;33069;51.970;5.892;2022-12-18T06:28:33;-3272.50;81.30
47338;DHT22;33069;51.970;5.892;2022-12-18T06:34:08;-3272.50;81.10
47338;DHT22;33069;51.970;5.892;2022-12-18T06:36:34;-3272.50;81.10
47338;DHT22;33069;51.970;5.892;2022-12-18T06:38:59;-3272.40;81.00
47338;DHT22;33069;51.970;5.892;2022-12-18T06:41:26;-3272.60;81.30
47338;DHT22;33069;51.970;5.892;2022-12-18T06:43:51;-3272.50;81.00
47338;DHT22;33069;51.970;5.892;2022-12-18T06:46:17;-3272.30;80.90
47338;DHT22;33069;51.970;5.892;2022-12-18T06:48:47;-3272.50;81.30
47338;DHT22;33069;51.970;5.892;2022-12-18T06:51:19;-3272.50;81.40
47338;DHT22;33069;51.970;5.892;2022-12-18T06:53:45;-3272.50;81.30
47338;DHT22;33069;51.970;5.892;2022-12-18T06:56:10;-3272.50;81.20
47338;DHT22;33069;51.970;5.892;2022-12-18T06:58:37;-3272.40;81.00
47338;DHT22;33069;51.970;5.892;2022-12-18T07:01:04;-3272.40;81.20
47338;DHT22;33069;51.970;5.892;2022-12-18T07:03:30;-3272.50;81.40
47338;DHT22;33069;51.970;5.892;2022-12-18T07:05:56;-3272.30;81.30
47338;DHT22;33069;51.970;5.892;2022-12-18T07:08:22;-3272.60;81.70
47338;DHT22;33069;51.970;5.892;2022-12-18T07:10:47;-3272.50;81.30
47338;DHT22;33069;51.970;5.892;2022-12-18T07:13:15;-3272.40;81.30
47338;DHT22;33069;51.970;5.892;2022-12-18T07:15:43;-3272.50;81.50
47338;DHT22;33069;51.970;5.892;2022-12-18T07:18:09;-3272.50;81.40
47338;DHT22;33069;51.970;5.892;2022-12-18T07:20:35;-3272.60;81.50
47338;DHT22;33069;51.970;5.892;2022-12-18T07:23:04;-3272.90;81.50
47338;DHT22;33069;51.970;5.892;2022-12-18T07:25:36;-3272.80;80.80
47338;DHT22;33069;51.970;5.892;2022-12-18T07:28:03;-3272.70;80.80
47338;DHT22;33069;51.970;5.892;2022-12-18T07:30:29;-3272.80;80.90
47338;DHT22;33069;51.970;5.892;2022-12-18T07:32:54;-3272.70;80.80
47338;DHT22;33069;51.970;5.892;2022-12-18T07:35:20;-3272.60;80.70
47338;DHT22;33069;51.970;5.892;2022-12-18T07:37:46;-3272.70;81.00
47338;DHT22;33069;51.970;5.892;2022-12-18T07:40:12;-3272.60;81.10
47338;DHT22;33069;51.970;5.892;2022-12-18T07:42:37;-3272.70;81.30
47338;DHT22;33069;51.970;5.892;2022-12-18T07:45:04;-3272.80;81.20
47338;DHT22;33069;51.970;5.892;2022-12-18T07:47:29;-3272.90;81.30
47338;DHT22;33069;51.970;5.892;2022-12-18T07:49:55;-3272.90;81.00
47338;DHT22;33069;51.970;5.892;2022-12-18T07:52:21;-3272.90;81.00
47338;DHT22;33069;51.970;5.892;2022-12-18T07:54:46;-3272.70;80.80
47338;DHT22;33069;51.970;5.892;2022-12-18T07:57:14;-3272.80;81.00
47338;DHT22;33069;51.970;5.892;2022-12-18T07:59:41;-3272.70;80.90
47338;DHT22;33069;51.970;5.892;2022-12-18T08:02:06;-3272.80;81.10
47338;DHT22;33069;51.970;5.892;2022-12-18T08:04:32;-3272.90;81.10
47338;DHT22;33069;51.970;5.892;2022-12-18T08:07:00;-3272.80;81.00
47338;DHT22;33069;51.970;5.892;2022-12-18T08:09:26;-3273.10;81.30
47338;DHT22;33069;51.970;5.892;2022-12-18T08:11:52;-3273.20;81.30
47338;DHT22;33069;51.970;5.892;2022-12-18T08:14:17;-3273.00;80.80
47338;DHT22;33069;51.970;5.892;2022-12-18T08:16:43;-3273.20;81.10
47338;DHT22;33069;51.970;5.892;2022-12-18T08:19:10;-3273.30;80.90
47338;DHT22;33069;51.970;5.892;2022-12-18T08:21:36;-3273.10;80.60
47338;DHT22;33069;51.970;5.892;2022-12-18T08:24:03;-3273.10;80.80
47338;DHT22;33069;51.970;5.892;2022-12-18T08:26:30;-3273.20;81.00
47338;DHT22;33069;51.970;5.892;2022-12-18T08:28:57;-3273.00;80.90
47338;DHT22;33069;51.970;5.892;2022-12-18T08:31:24;-3273.30;81.40
47338;DHT22;33069;51.970;5.892;2022-12-18T08:33:51;-3273.30;81.30
47338;DHT22;33069;51.970;5.892;2022-12-18T08:36:18;-3273.30;81.00
47338;DHT22;33069;51.970;5.892;2022-12-18T08:38:44;-3273.50;81.30
47338;DHT22;33069;51.970;5.892;2022-12-18T08:41:12;-3273.40;81.00
47338;DHT22;33069;51.970;5.892;2022-12-18T08:43:39;-3273.50;81.20
47338;DHT22;33069;51.970;5.892;2022-12-18T08:46:25;-3273.70;81.30
47338;DHT22;33069;51.970;5.892;2022-12-18T08:48:52;-3273.60;81.00
47338;DHT22;33069;51.970;5.892;2022-12-18T08:51:18;-3273.80;81.20
47338;DHT22;33069;51.970;5.892;2022-12-18T08:53:45;-3273.80;80.90
47338;DHT22;33069;51.970;5.892;2022-12-18T08:56:12;-3273.70;80.80
47338;DHT22;33069;51.970;5.892;2022-12-18T08:58:38;-3273.90;81.10
47338;DHT22;33069;51.970;5.892;2022-12-18T09:01:06;-3273.90;81.00
47338;DHT22;33069;51.970;5.892;2022-12-18T09:03:32;-3273.90;80.90
47338;DHT22;33069;51.970;5.892;2022-12-18T09:05:58;-3273.80;80.80
47338;DHT22;33069;51.970;5.892;2022-12-18T09:08:25;-3274.00;81.20
47338;DHT22;33069;51.970;5.892;2022-12-18T09:10:51;-3274.10;81.00
47338;DHT22;33069;51.970;5.892;2022-12-18T09:13:18;-3274.20;81.10
47338;DHT22;33069;51.970;5.892;2022-12-18T09:15:52;-3274.30;81.00
47338;DHT22;33069;51.970;5.892;2022-12-18T09:18:18;-3274.30;80.80
47338;DHT22;33069;51.970;5.892;2022-12-18T09:20:45;-3274.30;80.60
47338;DHT22;33069;51.970;5.892;2022-12-18T09:23:11;-3274.30;80.70
47338;DHT22;33069;51.970;5.892;2022-12-18T09:25:37;-3274.30;80.80
47338;DHT22;33069;51.970;5.892;2022-12-18T09:28:11;-3274.40;80.80
47338;DHT22;33069;51.970;5.892;2022-12-18T09:30:38;-3274.50;80.60
47338;DHT22;33069;51.970;5.892;2022-12-18T09:33:04;-3274.70;80.40
47338;DHT22;33069;51.970;5.892;2022-12-18T09:38:39;-3274.70;79.40
47338;DHT22;33069;51.970;5.892;2022-12-18T09:44:00;-3274.80;79.20
47338;DHT22;33069;51.970;5.892;2022-12-18T09:46:29;-3275.00;79.20
47338;DHT22;33069;51.970;5.892;2022-12-18T09:48:59;-3274.90;78.20
47338;DHT22;33069;51.970;5.892;2022-12-18T09:51:36;-3275.00;78.10
47338;DHT22;33069;51.970;5.892;2022-12-18T09:54:06;-3275.10;78.00
47338;DHT22;33069;51.970;5.892;2022-12-18T09:56:36;-3275.20;78.00
47338;DHT22;33069;51.970;5.892;2022-12-18T09:59:04;-3275.30;77.80
47338;DHT22;33069;51.970;5.892;2022-12-18T10:01:32;-3275.50;77.60
47338;DHT22;33069;51.970;5.892;2022-12-18T10:03:58;-3275.40;76.90
47338;DHT22;33069;51.970;5.892;2022-12-18T10:06:55;-3275.30;76.40
47338;DHT22;33069;51.970;5.892;2022-12-18T10:20:16;-3275.40;76.70
47338;DHT22;33069;51.970;5.892;2022-12-18T10:22:57;-3275.60;76.90
47338;DHT22;33069;51.970;5.892;2022-12-18T10:25:53;-3275.70;76.60
47338;DHT22;33069;51.970;5.892;2022-12-18T10:28:20;-3275.70;76.30
47338;DHT22;33069;51.970;5.892;2022-12-18T10:30:47;-3275.70;76.20
47338;DHT22;33069;51.970;5.892;2022-12-18T10:33:19;-3275.70;76.00
47338;DHT22;33069;51.970;5.892;2022-12-18T10:35:47;-3275.80;75.80
47338;DHT22;33069;51.970;5.892;2022-12-18T10:43:47;-3276.00;75.30
47338;DHT22;33069;51.970;5.892;2022-12-18T10:46:19;-3275.90;75.00
47338;DHT22;33069;51.970;5.892;2022-12-18T10:48:53;-3276.00;75.20
47338;DHT22;33069;51.970;5.892;2022-12-18T10:51:36;-3276.20;75.10
47338;DHT22;33069;51.970;5.892;2022-12-18T10:54:18;-3276.20;74.20
47338;DHT22;33069;51.970;5.892;2022-12-18T10:56:44;-3276.20;74.30
47338;DHT22;33069;51.970;5.892;2022-12-18T10:59:12;-3276.30;73.90
47338;DHT22;33069;51.970;5.892;2022-12-18T11:01:57;-3276.30;73.70
47338;DHT22;33069;51.970;5.892;2022-12-18T11:04:24;-3276.40;73.70
47338;DHT22;33069;51.970;5.892;2022-12-18T11:07:08;-3276.40;73.10
47338;DHT22;33069;51.970;5.892;2022-12-18T11:09:34;-3276.30;73.20
47338;DHT22;33069;51.970;5.892;2022-12-18T11:14:52;-3276.40;73.40
47338;DHT22;33069;51.970;5.892;2022-12-18T11:17:27;-3276.40;73.30
47338;DHT22;33069;51.970;5.892;2022-12-18T11:19:57;-3276.50;73.20
47338;DHT22;33069;51.970;5.892;2022-12-18T11:22:28;-3276.50;72.90
47338;DHT22;33069;51.970;5.892;2022-12-18T11:25:02;-3276.60;72.70
47338;DHT22;33069;51.970;5.892;2022-12-18T11:27:28;-3276.40;72.80
47338;DHT22;33069;51.970;5.892;2022-12-18T11:30:21;-3276.40;72.70
47338;DHT22;33069;51.970;5.892;2022-12-18T11:33:08;-3276.50;72.50
47338;DHT22;33069;51.970;5.892;2022-12-18T11:38:28;-3276.70;72.40
47338;DHT22;33069;51.970;5.892;2022-12-18T11:43:43;0.00;71.80
47338;DHT22;33069;51.970;5.892;2022-12-18T11:46:19;0.00;71.70
47338;DHT22;33069;51.970;5.892;2022-12-18T11:49:01;0.10;71.70
47338;DHT22;33069;51.970;5.892;2022-12-18T11:51:43;0.10;71.40
47338;DHT22;33069;51.970;5.892;2022-12-18T11:54:15;0.10;71.20
47338;DHT22;33069;51.970;5.892;2022-12-18T11:57:27;0.10;72.10
47338;DHT22;33069;51.970;5.892;2022-12-18T12:00:34;0.20;72.30
47338;DHT22;33069;51.970;5.892;2022-12-18T12:05:27;0.10;71.80
47338;DHT22;33069;51.970;5.892;2022-12-18T12:14:17;0.20;71.70
47338;DHT22;33069;51.970;5.892;2022-12-18T12:16:57;0.30;71.20
47338;DHT22;33069;51.970;5.892;2022-12-18T12:19:38;0.20;71.10
47338;DHT22;33069;51.970;5.892;2022-12-18T12:25:01;0.20;70.70
47338;DHT22;33069;51.970;5.892;2022-12-18T12:30:39;0.20;70.80
47338;DHT22;33069;51.970;5.892;2022-12-18T12:38:30;0.40;70.60
47338;DHT22;33069;51.970;5.892;2022-12-18T12:41:08;0.30;70.40
47338;DHT22;33069;51.970;5.892;2022-12-18T12:43:57;0.30;70.70
47338;DHT22;33069;51.970;5.892;2022-12-18T12:46:24;0.50;70.70
47338;DHT22;33069;51.970;5.892;2022-12-18T12:49:02;0.40;70.30
47338;DHT22;33069;51.970;5.892;2022-12-18T12:51:36;0.40;70.10
47338;DHT22;33069;51.970;5.892;2022-12-18T12:54:08;0.30;70.00
47338;DHT22;33069;51.970;5.892;2022-12-18T12:56:50;0.30;70.50
47338;DHT22;33069;51.970;5.892;2022-12-18T12:59:37;0.30;70.20
47338;DHT22;33069;51.970;5.892;2022-12-18T13:02:35;0.30;70.60
47338;DHT22;33069;51.970;5.892;2022-12-18T13:07:39;0.50;70.20
47338;DHT22;33069;51.970;5.892;2022-12-18T13:13:06;0.50;70.00
47338;DHT22;33069;51.970;5.892;2022-12-18T13:20:41;0.70;69.30
47338;DHT22;33069;51.970;5.892;2022-12-18T13:26:33;0.70;69.30
47338;DHT22;33069;51.970;5.892;2022-12-18T13:31:14;0.60;69.90
47338;DHT22;33069;51.970;5.892;2022-12-18T13:33:46;0.40;69.70
47338;DHT22;33069;51.970;5.892;2022-12-18T13:38:41;0.30;70.10
47338;DHT22;33069;51.970;5.892;2022-12-18T13:41:23;0.40;70.20
47338;DHT22;33069;51.970;5.892;2022-12-18T13:43:51;0.60;69.30
47338;DHT22;33069;51.970;5.892;2022-12-18T13:46:21;0.60;69.50
47338;DHT22;33069;51.970;5.892;2022-12-18T13:48:57;0.60;68.80
47338;DHT22;33069;51.970;5.892;2022-12-18T13:51:24;0.60;69.00
47338;DHT22;33069;51.970;5.892;2022-12-18T13:53:59;0.50;69.00
47338;DHT22;33069;51.970;5.892;2022-12-18T13:56:27;0.40;69.60
47338;DHT22;33069;51.970;5.892;2022-12-18T14:02:05;0.50;69.70
47338;DHT22;33069;51.970;5.892;2022-12-18T14:04:34;0.50;69.30
47338;DHT22;33069;51.970;5.892;2022-12-18T14:09:33;0.40;69.10
47338;DHT22;33069;51.970;5.892;2022-12-18T14:12:00;0.50;68.90
47338;DHT22;33069;51.970;5.892;2022-12-18T14:14:49;0.50;68.80
47338;DHT22;33069;51.970;5.892;2022-12-18T14:17:16;0.70;68.80
47338;DHT22;33069;51.970;5.892;2022-12-18T14:19:49;0.60;68.60
47338;DHT22;33069;51.970;5.892;2022-12-18T14:22:24;0.50;68.50
47338;DHT22;33069;51.970;5.892;2022-12-18T14:28:25;0.50;68.40
47338;DHT22;33069;51.970;5.892;2022-12-18T14:30:43;0.50;68.30
47338;DHT22;33069;51.970;5.892;2022-12-18T14:35:42;0.50;68.60
47338;DHT22;33069;51.970;5.892;2022-12-18T14:40:46;0.50;68.40
47338;DHT22;33069;51.970;5.892;2022-12-18T14:43:12;0.50;68.40
47338;DHT22;33069;51.970;5.892;2022-12-18T14:45:43;0.70;68.40
47338;DHT22;33069;51.970;5.892;2022-12-18T14:48:21;0.60;68.20
47338;DHT22;33069;51.970;5.892;2022-12-18T14:50:59;0.60;68.20
47338;DHT22;33069;51.970;5.892;2022-12-18T14:53:51;0.80;67.80
47338;DHT22;33069;51.970;5.892;2022-12-18T14:56:25;0.60;68.00
47338;DHT22;33069;51.970;5.892;2022-12-18T15:01:38;0.60;67.90
47338;DHT22;33069;51.970;5.892;2022-12-18T15:04:19;0.70;68.00
47338;DHT22;33069;51.970;5.892;2022-12-18T15:06:48;0.50;68.00
47338;DHT22;33069;51.970;5.892;2022-12-18T15:09:25;0.40;68.40
47338;DHT22;33069;51.970;5.892;2022-12-18T15:11:56;0.50;68.30
47338;DHT22;33069;51.970;5.892;2022-12-18T15:14:44;0.40;68.40
47338;DHT22;33069;51.970;5.892;2022-12-18T15:17:38;0.40;68.20
47338;DHT22;33069;51.970;5.892;2022-12-18T15:20:09;0.40;68.00
47338;DHT22;33069;51.970;5.892;2022-12-18T15:22:36;0.30;68.00
47338;DHT22;33069;51.970;5.892;2022-12-18T15:25:20;0.30;68.10
47338;DHT22;33069;51.970;5.892;2022-12-18T15:27:47;0.40;68.40
47338;DHT22;33069;51.970;5.892;2022-12-18T15:30:20;0.40;68.30
47338;DHT22;33069;51.970;5.892;2022-12-18T15:32:47;0.30;68.40
47338;DHT22;33069;51.970;5.892;2022-12-18T15:35:24;0.30;68.50
47338;DHT22;33069;51.970;5.892;2022-12-18T15:37:51;0.40;68.60
47338;DHT22;33069;51.970;5.892;2022-12-18T15:40:21;0.40;68.20
47338;DHT22;33069;51.970;5.892;2022-12-18T15:42:49;0.30;68.40
47338;DHT22;33069;51.970;5.892;2022-12-18T15:45:35;0.40;68.60
47338;DHT22;33069;51.970;5.892;2022-12-18T15:48:00;0.30;68.20
47338;DHT22;33069;51.970;5.892;2022-12-18T15:50:26;0.30;68.50
47338;DHT22;33069;51.970;5.892;2022-12-18T15:52:53;0.40;68.70
47338;DHT22;33069;51.970;5.892;2022-12-18T15:55:23;0.40;68.30
47338;DHT22;33069;51.970;5.892;2022-12-18T15:58:09;0.50;68.40
47338;DHT22;33069;51.970;5.892;2022-12-18T16:00:37;0.30;68.10
47338;DHT22;33069;51.970;5.892;2022-12-18T16:03:04;0.30;68.40
47338;DHT22;33069;51.970;5.892;2022-12-18T16:05:30;0.30;68.50
47338;DHT22;33069;51.970;5.892;2022-12-18T16:07:57;0.40;68.60
47338;DHT22;33069;51.970;5.892;2022-12-18T16:10:24;0.40;68.20
47338;DHT22;33069;51.970;5.892;2022-12-18T16:12:50;0.30;68.40
47338;DHT22;33069;51.970;5.892;2022-12-18T16:15:16;0.40;68.10
47338;DHT22;33069;51.970;5.892;2022-12-18T16:17:43;0.30;68.00
47338;DHT22;33069;51.970;5.892;2022-12-18T16:20:16;0.40;68.10
47338;DHT22;33069;51.970;5.892;2022-12-18T16:22:44;0.40;67.90
47338;DHT22;33069;51.970;5.892;2022-12-18T16:25:22;0.40;67.70
47338;DHT22;33069;51.970;5.892;2022-12-18T16:27:48;0.40;67.80
47338;DHT22;33069;51.970;5.892;2022-12-18T16:30:16;0.30;67.60
47338;DHT22;33069;51.970;5.892;2022-12-18T16:32:42;0.30;67.80
47338;DHT22;33069;51.970;5.892;2022-12-18T16:35:10;0.20;68.10
47338;DHT22;33069;51.970;5.892;2022-12-18T16:37:37;0.20;67.90
47338;DHT22;33069;51.970;5.892;2022-12-18T16:40:03;0.30;68.00
47338;DHT22;33069;51.970;5.892;2022-12-18T16:42:29;0.10;68.00
47338;DHT22;33069;51.970;5.892;2022-12-18T16:44:55;0.10;68.30
47338;DHT22;33069;51.970;5.892;2022-12-18T16:47:20;0.10;68.70
47338;DHT22;33069;51.970;5.892;2022-12-18T16:49:46;0.20;68.70
47338;DHT22;33069;51.970;5.892;2022-12-18T16:52:14;0.20;68.00
47338;DHT22;33069;51.970;5.892;2022-12-18T16:54:39;0.20;68.70
47338;DHT22;33069;51.970;5.892;2022-12-18T16:57:05;0.20;68.70
47338;DHT22;33069;51.970;5.892;2022-12-18T16:59:31;0.10;68.60
47338;DHT22;33069;51.970;5.892;2022-12-18T17:01:57;0.00;68.70
47338;DHT22;33069;51.970;5.892;2022-12-18T17:04:23;0.00;69.00
47338;DHT22;33069;51.970;5.892;2022-12-18T17:06:48;0.10;69.20
47338;DHT22;33069;51.970;5.892;2022-12-18T17:09:17;0.00;68.90
47338;DHT22;33069;51.970;5.892;2022-12-18T17:11:47;0.00;69.20
47338;DHT22;33069;51.970;5.892;2022-12-18T17:14:18;0.00;69.20
47338;DHT22;33069;51.970;5.892;2022-12-18T17:16:44;0.10;69.30
47338;DHT22;33069;51.970;5.892;2022-12-18T17:19:11;0.20;69.20
47338;DHT22;33069;51.970;5.892;2022-12-18T17:21:37;0.20;68.90
47338;DHT22;33069;51.970;5.892;2022-12-18T17:24:03;0.10;68.80
47338;DHT22;33069;51.970;5.892;2022-12-18T17:26:29;0.10;69.20
47338;DHT22;33069;51.970;5.892;2022-12-18T17:28:56;0.10;69.50
47338;DHT22;33069;51.970;5.892;2022-12-18T17:31:24;0.10;69.40
47338;DHT22;33069;51.970;5.892;2022-12-18T17:33:50;0.10;69.50